Time;durP1;ratioP1;P1;durP2;ratioP2;P2;SDS_P1;SDS_P2;PMS_P1;PMS_P2;Temp;Humidity;BMP_temperature;BMP_pressure;BME280_temperature;BME280_humidity;BME280_pressure;Samples;Min_cycle;Max_cycle;Signal;HPM_P1;HPM_P2
2023/08/20 02:00:34;;;;;;;14.38;12.10;;;;;;;;;;5022098;27;20031;-80
2023/08/20 02:03:01;;;;;;;15.35;13.13;;;;;;;;;;4308458;33;20064;-80
2023/08/20 02:05:27;;;;;;;18.65;13.20;;;;;;;;;;4309935;33;20033;-80
2023/08/20 02:07:54;;;;;;;16.58;12.68;;;;;;;;;;4317106;33;20052;-79
2023/08/20 02:10:21;;;;;;;17.90;13.20;;;;;;;;;;4324778;33;20113;-80
2023/08/20 02:12:47;;;;;;;18.48;14.48;;;;;;;;;;4325399;33;20058;-79
2023/08/20 02:15:13;;;;;;;15.18;13.60;;;;;;;;;;4327320;33;20033;-82
2023/08/20 02:17:39;;;;;;;21.40;13.45;;;;;;;;;;4313926;33;20500;-79
2023/08/20 02:20:07;;;;;;;16.48;13.10;;;;;;;;;;4314492;33;20045;-80
2023/08/20 02:22:34;;;;;;;19.42;14.77;;;;;;;;;;4312526;33;20044;-79
2023/08/20 02:25:00;;;;;;;21.85;15.95;;;;;;;;;;4314565;33;20096;-80
2023/08/20 02:27:27;;;;;;;19.25;15.30;;;;;;;;;;4314368;33;20054;-80
2023/08/20 02:29:52;;;;;;;21.17;18.12;;;;;;;;;;4313860;33;20066;-80
2023/08/20 02:32:19;;;;;;;29.50;17.05;;;;;;;;;;4325939;33;20037;-81
2023/08/20 02:34:48;;;;;;;21.83;16.73;;;;;;;;;;4326659;33;20045;-81
2023/08/20 02:37:15;;;;;;;25.55;16.85;;;;;;;;;;4324755;33;20040;-80
2023/08/20 02:39:41;;;;;;;19.80;16.15;;;;;;;;;;4314027;33;20459;-80
2023/08/20 02:42:08;;;;;;;21.33;15.63;;;;;;;;;;4320829;33;20443;-81
2023/08/20 02:44:34;;;;;;;21.52;16.15;;;;;;;;;;4326993;33;20398;-81
2023/08/20 02:47:00;;;;;;;21.30;17.05;;;;;;;;;;4328322;33;20623;-81
2023/08/20 02:49:26;;;;;;;22.10;16.75;;;;;;;;;;4329742;33;20070;-81
2023/08/20 02:51:53;;;;;;;18.20;14.40;;;;;;;;;;4328276;33;20045;-80
2023/08/20 02:54:19;;;;;;;17.42;15.00;;;;;;;;;;4328222;33;20074;-80
2023/08/20 02:56:45;;;;;;;17.25;14.75;;;;;;;;;;4320827;33;20074;-81
2023/08/20 02:59:11;;;;;;;17.98;15.63;;;;;;;;;;4315921;33;20068;-81
2023/08/20 03:01:37;;;;;;;17.05;15.00;;;;;;;;;;4317543;33;20410;-81
2023/08/20 03:04:04;;;;;;;15.43;13.93;;;;;;;;;;4313968;33;20041;-80
2023/08/20 03:06:30;;;;;;;16.58;14.87;;;;;;;;;;4320769;33;20377;-80
2023/08/20 03:08:56;;;;;;;22.62;15.23;;;;;;;;;;4326453;33;20066;-82
2023/08/20 03:11:22;;;;;;;19.60;14.57;;;;;;;;;;4328501;33;20057;-82
2023/08/20 03:13:48;;;;;;;18.00;14.68;;;;;;;;;;4328508;33;20078;-82
2023/08/20 03:16:15;;;;;;;21.45;14.40;;;;;;;;;;4328399;33;20062;-82
2023/08/20 03:18:41;;;;;;;25.55;15.25;;;;;;;;;;4326475;33;20039;-82
2023/08/20 03:21:07;;;;;;;19.87;14.02;;;;;;;;;;4320690;33;20057;-82
2023/08/20 03:23:33;;;;;;;16.48;14.35;;;;;;;;;;4326659;33;20052;-82
2023/08/20 03:26:00;;;;;;;18.48;13.57;;;;;;;;;;4326434;33;20541;-82
2023/08/20 03:28:26;;;;;;;17.70;14.65;;;;;;;;;;4326671;33;20052;-82
2023/08/20 03:30:53;;;;;;;14.95;13.43;;;;;;;;;;4324366;33;20048;-82
2023/08/20 03:33:20;;;;;;;17.62;13.90;;;;;;;;;;4327828;33;20082;-83
2023/08/20 03:35:46;;;;;;;15.32;13.73;;;;;;;;;;4327721;33;20032;-83
2023/08/20 03:38:17;;;;;;;20.20;14.73;;;;;;;;;;4314179;33;20468;-83
2023/08/20 03:40:45;;;;;;;18.77;15.20;;;;;;;;;;4311203;33;20037;-82
2023/08/20 03:43:11;;;;;;;20.37;14.63;;;;;;;;;;4312659;33;20079;-82
2023/08/20 03:45:37;;;;;;;19.83;14.60;;;;;;;;;;4283855;33;20054;-82
2023/08/20 03:48:03;;;;;;;17.95;13.93;;;;;;;;;;4294345;33;20119;-82
2023/08/20 03:50:30;;;;;;;15.60;14.00;;;;;;;;;;4296579;33;20098;-82
2023/08/20 03:52:56;;;;;;;17.00;14.55;;;;;;;;;;4286669;33;20064;-82
2023/08/20 03:55:22;;;;;;;17.42;14.93;;;;;;;;;;4278763;33;20053;-82
2023/08/20 03:57:48;;;;;;;18.60;14.82;;;;;;;;;;4281959;33;20075;-81
2023/08/20 04:00:15;;;;;;;17.52;15.77;;;;;;;;;;4282071;33;20504;-81
2023/08/20 04:02:41;;;;;;;16.85;15.05;;;;;;;;;;4280030;33;20078;-80
2023/08/20 04:05:07;;;;;;;22.95;15.90;;;;;;;;;;4281323;33;20098;-81
2023/08/20 04:07:33;;;;;;;21.05;17.02;;;;;;;;;;4278254;33;20482;-80
2023/08/20 04:09:59;;;;;;;20.67;17.15;;;;;;;;;;4281551;33;20053;-81
2023/08/20 04:12:25;;;;;;;23.17;17.05;;;;;;;;;;4275559;33;20170;-81
2023/08/20 04:14:52;;;;;;;19.42;17.02;;;;;;;;;;4277473;33;20392;-81
2023/08/20 04:17:18;;;;;;;20.30;15.52;;;;;;;;;;4287659;33;20451;-80
2023/08/20 04:19:44;;;;;;;24.10;17.60;;;;;;;;;;4293292;33;20103;-81
2023/08/20 04:22:10;;;;;;;22.87;17.08;;;;;;;;;;4295709;33;20465;-80
2023/08/20 04:24:36;;;;;;;20.35;18.02;;;;;;;;;;4294938;33;20124;-82
2023/08/20 04:27:03;;;;;;;23.75;18.37;;;;;;;;;;4294875;33;20063;-79
2023/08/20 04:29:29;;;;;;;22.13;18.30;;;;;;;;;;4292003;33;20066;-80
2023/08/20 04:31:55;;;;;;;22.60;16.37;;;;;;;;;;4295393;33;20046;-80
2023/08/20 04:34:22;;;;;;;19.48;15.27;;;;;;;;;;4299409;33;20082;-81
2023/08/20 04:36:48;;;;;;;18.10;15.73;;;;;;;;;;4298366;33;20044;-82
2023/08/20 04:39:14;;;;;;;18.60;15.52;;;;;;;;;;4301974;33;20198;-81
2023/08/20 04:41:42;;;;;;;23.62;16.98;;;;;;;;;;4298534;33;20049;-81
2023/08/20 04:44:10;;;;;;;23.27;17.50;;;;;;;;;;4301270;33;20480;-82
2023/08/20 04:46:36;;;;;;;20.75;16.87;;;;;;;;;;4292604;33;20036;-81
2023/08/20 04:49:03;;;;;;;25.12;16.52;;;;;;;;;;4305366;33;20053;-83
2023/08/20 04:51:29;;;;;;;28.90;17.08;;;;;;;;;;4307144;33;20033;-81
2023/08/20 04:53:56;;;;;;;23.75;16.48;;;;;;;;;;4309338;33;20041;-82
2023/08/20 04:56:22;;;;;;;26.12;16.55;;;;;;;;;;4308649;33;20037;-84
2023/08/20 04:58:49;;;;;;;25.00;17.40;;;;;;;;;;4309539;33;20044;-82
2023/08/20 05:01:18;;;;;;;26.23;16.70;;;;;;;;;;4308019;33;20048;-80
2023/08/20 05:03:45;;;;;;;25.00;16.55;;;;;;;;;;4305403;33;20056;-81
2023/08/20 05:06:11;;;;;;;19.70;16.83;;;;;;;;;;4294477;33;20079;-80
2023/08/20 05:08:37;;;;;;;25.00;16.85;;;;;;;;;;4301475;33;20404;-80
2023/08/20 05:11:04;;;;;;;21.17;17.65;;;;;;;;;;4307386;33;20086;-79
2023/08/20 05:13:30;;;;;;;20.45;16.33;;;;;;;;;;4309463;33;20085;-79
2023/08/20 05:15:56;;;;;;;23.38;16.60;;;;;;;;;;4306342;33;20393;-80
2023/08/20 05:18:26;;;;;;;33.00;16.48;;;;;;;;;;4308759;33;20044;-79
2023/08/20 05:20:54;;;;;;;22.80;16.50;;;;;;;;;;4305595;33;20059;-79
2023/08/20 05:23:20;;;;;;;36.17;18.05;;;;;;;;;;4306999;33;20071;-81
2023/08/20 05:25:46;;;;;;;27.15;17.48;;;;;;;;;;4306324;33;20372;-79
2023/08/20 05:28:13;;;;;;;24.02;16.75;;;;;;;;;;4308798;33;20496;-79
2023/08/20 05:30:40;;;;;;;21.85;17.05;;;;;;;;;;4307969;33;20845;-79
2023/08/20 05:33:06;;;;;;;25.17;16.85;;;;;;;;;;4308020;33;20062;-81
2023/08/20 05:35:34;;;;;;;24.42;17.12;;;;;;;;;;4306062;33;20585;-80
2023/08/20 05:38:00;;;;;;;20.52;16.12;;;;;;;;;;4308358;33;20125;-82
2023/08/20 05:40:26;;;;;;;21.25;17.90;;;;;;;;;;4307246;33;20145;-79
2023/08/20 05:42:53;;;;;;;28.10;17.52;;;;;;;;;;4304585;33;20462;-80
2023/08/20 05:45:19;;;;;;;22.62;16.73;;;;;;;;;;4303097;33;20131;-80
2023/08/20 05:47:46;;;;;;;22.37;16.05;;;;;;;;;;4301935;33;20102;-80
2023/08/20 05:50:12;;;;;;;26.23;16.27;;;;;;;;;;4301874;33;20406;-81
2023/08/20 05:52:39;;;;;;;21.77;16.58;;;;;;;;;;4301943;33;20037;-82
2023/08/20 05:55:06;;;;;;;23.92;16.75;;;;;;;;;;4302897;33;20078;-82
2023/08/20 05:57:33;;;;;;;19.85;16.58;;;;;;;;;;4304043;33;20082;-80
2023/08/20 05:59:59;;;;;;;21.42;16.05;;;;;;;;;;4301147;33;20059;-82
2023/08/20 06:02:25;;;;;;;24.52;17.30;;;;;;;;;;4307206;33;20497;-84
2023/08/20 06:04:52;;;;;;;23.77;17.02;;;;;;;;;;4300597;33;20037;-80
2023/08/20 06:07:18;;;;;;;23.67;16.90;;;;;;;;;;4293277;33;20067;-76
2023/08/20 06:09:44;;;;;;;24.83;16.90;;;;;;;;;;4294778;33;20057;-80
2023/08/20 06:12:10;;;;;;;22.08;17.65;;;;;;;;;;4292604;33;20077;-79
2023/08/20 06:14:36;;;;;;;23.75;17.20;;;;;;;;;;4296875;33;20052;-79
2023/08/20 06:17:02;;;;;;;22.00;16.70;;;;;;;;;;4265522;33;20045;-80
2023/08/20 06:19:29;;;;;;;24.12;17.27;;;;;;;;;;4261279;33;20043;-78
2023/08/20 06:21:55;;;;;;;23.40;17.23;;;;;;;;;;4251401;33;20455;-79
2023/08/20 06:24:21;;;;;;;24.52;17.08;;;;;;;;;;4249939;33;20030;-78
2023/08/20 06:26:47;;;;;;;19.98;17.00;;;;;;;;;;4248634;33;20105;-76
2023/08/20 06:29:13;;;;;;;26.42;21.27;;;;;;;;;;4255387;33;20045;-78
2023/08/20 06:31:40;;;;;;;21.98;17.98;;;;;;;;;;4250131;33;20054;-77
2023/08/20 06:34:06;;;;;;;25.48;21.62;;;;;;;;;;4258292;33;20060;-78
2023/08/20 06:36:32;;;;;;;29.98;16.80;;;;;;;;;;4258938;33;20063;-77
2023/08/20 06:38:58;;;;;;;21.30;16.30;;;;;;;;;;4270745;33;20811;-77
2023/08/20 06:41:25;;;;;;;18.08;16.15;;;;;;;;;;4264261;33;20054;-79
2023/08/20 06:43:51;;;;;;;21.73;15.85;;;;;;;;;;4270639;33;20545;-78
2023/08/20 06:46:17;;;;;;;21.30;16.40;;;;;;;;;;4266530;33;20057;-78
2023/08/20 06:48:43;;;;;;;23.80;16.05;;;;;;;;;;4264498;33;20046;-78
2023/08/20 06:51:12;;;;;;;17.27;15.20;;;;;;;;;;4266921;33;20061;-77
2023/08/20 06:53:40;;;;;;;21.02;15.38;;;;;;;;;;4281592;33;20063;-77
2023/08/20 06:56:11;;;;;;;20.70;17.45;;;;;;;;;;4314142;33;20070;-77
2023/08/20 06:58:37;;;;;;;19.45;15.77;;;;;;;;;;4309153;33;20045;-77
2023/08/20 07:01:10;;;;;;;20.83;15.55;;;;;;;;;;4312136;33;20808;-77
2023/08/20 07:03:40;;;;;;;23.17;16.40;;;;;;;;;;4312318;33;20070;-77
2023/08/20 07:06:06;;;;;;;18.50;16.48;;;;;;;;;;4312127;33;20382;-77
2023/08/20 07:08:32;;;;;;;17.77;15.52;;;;;;;;;;4323480;33;20056;-77
2023/08/20 07:10:59;;;;;;;18.35;15.23;;;;;;;;;;4325130;33;20052;-76
2023/08/20 07:13:25;;;;;;;18.92;16.15;;;;;;;;;;4324347;33;20100;-77
2023/08/20 07:15:51;;;;;;;19.17;15.55;;;;;;;;;;4322268;33;20153;-77
2023/08/20 07:18:17;;;;;;;20.92;14.90;;;;;;;;;;4335229;33;20377;-78
2023/08/20 07:20:44;;;;;;;16.77;14.98;;;;;;;;;;4336781;33;20073;-79
2023/08/20 07:23:10;;;;;;;28.52;15.30;;;;;;;;;;4340312;33;20039;-79
2023/08/20 07:25:40;;;;;;;19.17;15.23;;;;;;;;;;4296983;33;20045;-76
2023/08/20 07:28:09;;;;;;;18.60;14.55;;;;;;;;;;4298388;33;20048;-78
2023/08/20 07:30:35;;;;;;;16.70;14.85;;;;;;;;;;4295990;33;20465;-78
2023/08/20 07:33:02;;;;;;;17.95;15.38;;;;;;;;;;4297103;33;20066;-78
2023/08/20 07:35:28;;;;;;;19.08;15.50;;;;;;;;;;4295863;33;20070;-80
2023/08/20 07:37:54;;;;;;;24.15;17.08;;;;;;;;;;4294835;33;20041;-78
2023/08/20 07:40:21;;;;;;;16.60;13.75;;;;;;;;;;4257150;33;20393;-80
2023/08/20 07:42:46;;;;;;;19.50;13.35;;;;;;;;;;4265256;33;20059;-79
2023/08/20 07:45:19;;;;;;;17.35;14.38;;;;;;;;;;4254407;33;20089;-80
2023/08/20 07:47:45;;;;;;;18.85;12.88;;;;;;;;;;4265226;33;20042;-80
2023/08/20 07:50:11;;;;;;;18.62;14.07;;;;;;;;;;4254179;33;20054;-78
2023/08/20 07:52:37;;;;;;;22.52;12.63;;;;;;;;;;4278404;33;20049;-78
2023/08/20 07:55:04;;;;;;;16.23;13.48;;;;;;;;;;4277945;33;20053;-78
2023/08/20 07:57:30;;;;;;;16.95;13.93;;;;;;;;;;4278847;33;20282;-78
2023/08/20 07:59:56;;;;;;;17.20;13.70;;;;;;;;;;4280324;33;20657;-78
2023/08/20 08:02:22;;;;;;;20.05;15.05;;;;;;;;;;4285143;33;20082;-79
2023/08/20 08:04:49;;;;;;;17.05;13.70;;;;;;;;;;4308277;33;20052;-78
2023/08/20 08:07:15;;;;;;;22.85;13.73;;;;;;;;;;4307680;33;20185;-79
2023/08/20 08:09:41;;;;;;;13.77;12.15;;;;;;;;;;4299985;33;20506;-78
2023/08/20 08:12:07;;;;;;;16.45;12.60;;;;;;;;;;4297659;33;20102;-78
2023/08/20 08:14:33;;;;;;;15.82;12.50;;;;;;;;;;4296234;33;20169;-79
2023/08/20 08:16:59;;;;;;;14.77;11.52;;;;;;;;;;4295778;33;20071;-78
2023/08/20 08:19:26;;;;;;;13.40;11.73;;;;;;;;;;4294538;33;20099;-78
2023/08/20 08:21:51;;;;;;;13.50;11.77;;;;;;;;;;4293173;33;20439;-78
2023/08/20 08:24:18;;;;;;;12.57;11.23;;;;;;;;;;4306709;33;20275;-78
2023/08/20 08:26:44;;;;;;;14.10;11.25;;;;;;;;;;4310209;33;20445;-78
2023/08/20 08:29:10;;;;;;;14.32;10.02;;;;;;;;;;4309613;33;20045;-78
2023/08/20 08:31:36;;;;;;;12.37;10.15;;;;;;;;;;4314710;33;20498;-77
2023/08/20 08:34:05;;;;;;;12.77;10.27;;;;;;;;;;4322204;33;20053;-78
2023/08/20 08:36:31;;;;;;;11.93;9.80;;;;;;;;;;4323913;33;20329;-78
2023/08/20 08:38:58;;;;;;;10.63;9.60;;;;;;;;;;4324932;33;20086;-78
2023/08/20 08:41:24;;;;;;;10.15;9.25;;;;;;;;;;4323087;33;20036;-79
2023/08/20 08:43:51;;;;;;;11.12;9.25;;;;;;;;;;4312269;33;20121;-79
2023/08/20 08:46:17;;;;;;;10.70;9.63;;;;;;;;;;4312251;33;20422;-79
2023/08/20 08:48:44;;;;;;;13.50;10.23;;;;;;;;;;4312560;33;20049;-78
2023/08/20 08:51:11;;;;;;;13.43;9.90;;;;;;;;;;4294656;33;20506;-79
2023/08/20 08:53:37;;;;;;;11.60;10.15;;;;;;;;;;4294246;33;20430;-79
2023/08/20 08:56:05;;;;;;;13.18;9.98;;;;;;;;;;4293267;33;20487;-79
2023/08/20 08:58:32;;;;;;;13.30;10.15;;;;;;;;;;4293910;33;20033;-78
2023/08/20 09:00:58;;;;;;;11.60;9.93;;;;;;;;;;4294014;33;20121;-78
2023/08/20 09:03:25;;;;;;;13.75;10.57;;;;;;;;;;4279392;33;20462;-79
2023/08/20 09:06:03;;;;;;;11.00;9.88;;;;;;;;;;4278153;33;20126;-78
2023/08/20 09:08:30;;;;;;;14.73;10.02;;;;;;;;;;4279213;33;20045;-79
2023/08/20 09:10:56;;;;;;;11.90;10.77;;;;;;;;;;4279780;33;20041;-79
2023/08/20 09:13:24;;;;;;;10.88;9.75;;;;;;;;;;4278892;33;20455;-78
2023/08/20 09:15:51;;;;;;;11.50;10.30;;;;;;;;;;4278743;33;20079;-78
2023/08/20 09:18:18;;;;;;;11.48;9.15;;;;;;;;;;4280586;33;20076;-77
2023/08/20 09:20:44;;;;;;;15.95;10.60;;;;;;;;;;4279121;33;20746;-77
2023/08/20 09:23:13;;;;;;;11.45;9.55;;;;;;;;;;4279066;33;20072;-78
2023/08/20 09:25:39;;;;;;;11.43;9.65;;;;;;;;;;4278886;33;20600;-78
2023/08/20 09:28:05;;;;;;;11.65;10.02;;;;;;;;;;4278129;33;20042;-78
2023/08/20 09:30:32;;;;;;;11.10;9.10;;;;;;;;;;4279352;33;20079;-79
2023/08/20 09:33:06;;;;;;;10.82;9.57;;;;;;;;;;4280102;33;20063;-79
2023/08/20 09:35:33;;;;;;;10.10;8.50;;;;;;;;;;4275954;33;20053;-78
2023/08/20 09:38:05;;;;;;;15.00;9.38;;;;;;;;;;4264491;33;20506;-79
2023/08/20 09:40:31;;;;;;;13.60;8.23;;;;;;;;;;4281155;33;20565;-79
2023/08/20 09:42:57;;;;;;;15.57;9.32;;;;;;;;;;4278737;33;20428;-78
2023/08/20 09:45:24;;;;;;;11.63;8.50;;;;;;;;;;4278864;33;20033;-78
2023/08/20 09:47:54;;;;;;;9.63;8.73;;;;;;;;;;4277906;33;20079;-78
2023/08/20 09:50:21;;;;;;;12.37;9.40;;;;;;;;;;4280422;33;20851;-78
2023/08/20 09:53:06;;;;;;;11.43;8.48;;;;;;;;;;4279216;33;20053;-78
2023/08/20 09:55:35;;;;;;;9.13;8.23;;;;;;;;;;4278966;33;20233;-79
2023/08/20 09:58:03;;;;;;;9.93;7.18;;;;;;;;;;4280395;33;20591;-78
2023/08/20 10:00:29;;;;;;;9.20;8.25;;;;;;;;;;4279091;33;20044;-78
2023/08/20 10:02:56;;;;;;;9.55;8.75;;;;;;;;;;4279096;33;20059;-78
2023/08/20 10:05:22;;;;;;;9.95;9.05;;;;;;;;;;4280496;33;20449;-78
2023/08/20 10:07:49;;;;;;;9.82;8.57;;;;;;;;;;4276467;33;20058;-78
2023/08/20 10:10:16;;;;;;;9.43;8.40;;;;;;;;;;4292220;33;20312;-78
2023/08/20 10:12:44;;;;;;;9.57;8.57;;;;;;;;;;4294280;33;20452;-78
2023/08/20 10:15:12;;;;;;;9.52;8.55;;;;;;;;;;4307760;33;20072;-78
2023/08/20 10:17:40;;;;;;;14.10;8.60;;;;;;;;;;4308267;33;20053;-80
2023/08/20 10:20:07;;;;;;;10.25;8.48;;;;;;;;;;4309886;33;20044;-78
2023/08/20 10:22:33;;;;;;;12.25;7.95;;;;;;;;;;4307873;33;20037;-78
2023/08/20 10:25:02;;;;;;;8.73;7.90;;;;;;;;;;4295436;33;20213;-79
2023/08/20 10:27:32;;;;;;;9.30;7.25;;;;;;;;;;4295483;33;20084;-78
2023/08/20 10:29:59;;;;;;;9.10;7.35;;;;;;;;;;4292647;33;20087;-78
2023/08/20 10:32:46;;;;;;;8.05;7.07;;;;;;;;;;4309553;33;20687;-78
2023/08/20 10:35:12;;;;;;;9.73;7.40;;;;;;;;;;4309924;33;20411;-78
2023/08/20 10:37:59;;;;;;;8.25;7.37;;;;;;;;;;4309158;33;20067;-79
2023/08/20 10:40:43;;;;;;;6.97;6.30;;;;;;;;;;4297253;33;20044;-78
2023/08/20 10:43:10;;;;;;;9.20;7.97;;;;;;;;;;4294355;33;20041;-79
2023/08/20 10:45:43;;;;;;;9.77;7.62;;;;;;;;;;4292214;33;20093;-80
2023/08/20 10:48:11;;;;;;;13.90;8.70;;;;;;;;;;4281447;33;20076;-78
2023/08/20 10:50:37;;;;;;;11.45;7.30;;;;;;;;;;4284969;33;20416;-78
2023/08/20 10:53:03;;;;;;;10.85;7.00;;;;;;;;;;4308650;33;20511;-79
2023/08/20 10:55:30;;;;;;;9.73;7.47;;;;;;;;;;4309964;33;21158;-77
2023/08/20 10:58:02;;;;;;;10.57;8.10;;;;;;;;;;4310178;33;20273;-78
2023/08/20 11:03:27;;;;;;;12.40;7.53;;;;;;;;;;4289682;33;19944;-79
2023/08/20 11:05:54;;;;;;;14.65;7.55;;;;;;;;;;4293857;33;20058;-78
2023/08/20 11:08:21;;;;;;;15.13;8.07;;;;;;;;;;4295020;33;21319;-76
2023/08/20 11:10:47;;;;;;;9.52;7.82;;;;;;;;;;4284108;33;20470;-77
2023/08/20 11:13:13;;;;;;;9.80;7.35;;;;;;;;;;4280480;33;20368;-76
2023/08/20 11:15:39;;;;;;;7.97;7.12;;;;;;;;;;4279843;33;20555;-77
2023/08/20 11:18:05;;;;;;;11.05;7.60;;;;;;;;;;4264135;33;20077;-77
2023/08/20 11:20:32;;;;;;;7.75;6.47;;;;;;;;;;4265895;33;20540;-76
2023/08/20 11:22:58;;;;;;;8.50;6.57;;;;;;;;;;4266659;33;20069;-76
2023/08/20 11:25:24;;;;;;;7.87;7.07;;;;;;;;;;4236590;33;20109;-77
2023/08/20 11:27:50;;;;;;;7.62;6.72;;;;;;;;;;4237149;33;20050;-78
2023/08/20 11:30:16;;;;;;;7.65;7.00;;;;;;;;;;4236263;33;20039;-77
2023/08/20 11:32:44;;;;;;;9.73;6.57;;;;;;;;;;4236291;33;20072;-77
2023/08/20 11:35:11;;;;;;;13.88;7.22;;;;;;;;;;4236283;33;20046;-77
2023/08/20 11:37:37;;;;;;;9.98;7.45;;;;;;;;;;4236244;33;20038;-77
2023/08/20 11:40:06;;;;;;;7.57;6.75;;;;;;;;;;4235955;33;20055;-78
2023/08/20 11:42:33;;;;;;;10.90;6.47;;;;;;;;;;4234039;33;20165;-79
2023/08/20 11:44:59;;;;;;;7.10;6.40;;;;;;;;;;4237570;33;20214;-78
2023/08/20 11:47:25;;;;;;;9.70;7.20;;;;;;;;;;4235510;33;20172;-78
2023/08/20 11:50:04;;;;;;;8.82;7.12;;;;;;;;;;4243597;33;20117;-77
2023/08/20 11:52:31;;;;;;;8.13;6.30;;;;;;;;;;4245749;33;20058;-78
2023/08/20 11:54:57;;;;;;;8.23;7.40;;;;;;;;;;4247716;33;20843;-76
2023/08/20 11:57:31;;;;;;;11.90;6.53;;;;;;;;;;4293503;33;20038;-78
2023/08/20 12:00:09;;;;;;;7.15;6.62;;;;;;;;;;4296388;33;20053;-78
2023/08/20 12:02:41;;;;;;;8.48;7.28;;;;;;;;;;4285735;33;21030;-79
2023/08/20 12:05:07;;;;;;;7.78;6.82;;;;;;;;;;4293080;33;20055;-78
2023/08/20 12:07:33;;;;;;;7.28;6.68;;;;;;;;;;4289028;33;20150;-82
2023/08/20 12:10:18;;;;;;;6.68;6.15;;;;;;;;;;4293227;33;20053;-78
2023/08/20 12:12:45;;;;;;;7.75;6.32;;;;;;;;;;4289582;33;20028;-78
2023/08/20 12:15:11;;;;;;;7.97;6.55;;;;;;;;;;4291777;33;20488;-77
2023/08/20 12:17:37;;;;;;;7.10;6.53;;;;;;;;;;4288500;33;20038;-78
2023/08/20 12:20:12;;;;;;;8.93;5.32;;;;;;;;;;4291072;33;20398;-77
2023/08/20 12:22:38;;;;;;;6.70;6.20;;;;;;;;;;4285581;33;20037;-79
2023/08/20 12:25:06;;;;;;;10.98;5.68;;;;;;;;;;4290634;33;20191;-80
2023/08/20 12:27:33;;;;;;;6.37;5.32;;;;;;;;;;4263005;33;20067;-79
2023/08/20 12:29:59;;;;;;;6.15;5.62;;;;;;;;;;4264928;33;20385;-81
2023/08/20 12:32:25;;;;;;;7.07;5.80;;;;;;;;;;4265034;33;20143;-79
2023/08/20 12:34:52;;;;;;;7.57;5.68;;;;;;;;;;4266527;33;20125;-82
2023/08/20 12:37:18;;;;;;;12.50;5.32;;;;;;;;;;4266744;33;20428;-79
2023/08/20 12:39:44;;;;;;;9.25;5.50;;;;;;;;;;4264660;33;20506;-77
2023/08/20 12:42:10;;;;;;;6.20;5.60;;;;;;;;;;4265971;33;20037;-78
2023/08/20 12:44:36;;;;;;;8.95;5.68;;;;;;;;;;4264721;33;20105;-78
2023/08/20 12:47:03;;;;;;;5.85;5.43;;;;;;;;;;4265713;33;20060;-79
2023/08/20 12:49:29;;;;;;;5.65;5.25;;;;;;;;;;4264572;33;20046;-78
2023/08/20 12:51:55;;;;;;;7.87;6.55;;;;;;;;;;4266666;33;20393;-78
2023/08/20 13:05:30;;;;;;;8.07;5.62;;;;;;;;;;4450424;32;20354;-78
2023/08/20 13:07:56;;;;;;;5.87;5.18;;;;;;;;;;4451305;32;20049;-84
2023/08/20 13:10:29;;;;;;;5.75;5.25;;;;;;;;;;4450815;32;20749;-83
2023/08/20 13:12:59;;;;;;;5.15;4.75;;;;;;;;;;4447823;32;20034;-78
2023/08/20 13:15:25;;;;;;;6.05;5.55;;;;;;;;;;4452890;32;20468;-88
2023/08/20 13:17:52;;;;;;;9.90;4.60;;;;;;;;;;4432323;32;20080;-86
2023/08/20 13:20:22;;;;;;;5.57;5.07;;;;;;;;;;4431047;32;20437;-79
2023/08/20 13:22:49;;;;;;;5.62;5.22;;;;;;;;;;4433215;32;20064;-80
2023/08/20 13:25:15;;;;;;;6.57;5.87;;;;;;;;;;4425873;32;20171;-82
2023/08/20 13:27:41;;;;;;;5.25;4.75;;;;;;;;;;4423251;32;20103;-83
2023/08/20 13:30:08;;;;;;;5.50;5.00;;;;;;;;;;4425648;32;20068;-82
2023/08/20 13:32:35;;;;;;;5.95;5.45;;;;;;;;;;4427116;32;20814;-83
2023/08/20 13:35:01;;;;;;;5.70;5.20;;;;;;;;;;4409888;32;20054;-83
2023/08/20 13:37:30;;;;;;;5.78;5.28;;;;;;;;;;4410319;32;20039;-82
2023/08/20 13:39:57;;;;;;;5.87;5.37;;;;;;;;;;4409718;32;20039;-83
2023/08/20 13:42:23;;;;;;;6.00;5.40;;;;;;;;;;4409249;32;20064;-83
2023/08/20 13:44:49;;;;;;;8.95;5.37;;;;;;;;;;4409534;32;20042;-83
2023/08/20 13:47:15;;;;;;;5.25;4.80;;;;;;;;;;4410497;32;20825;-81
2023/08/20 13:49:41;;;;;;;5.47;4.45;;;;;;;;;;4391412;32;20132;-82
2023/08/20 13:52:09;;;;;;;5.75;4.62;;;;;;;;;;4390318;32;20039;-86
2023/08/20 13:54:35;;;;;;;5.82;5.20;;;;;;;;;;4389107;32;20030;-85
2023/08/20 13:57:01;;;;;;;8.80;5.07;;;;;;;;;;4396759;32;20889;-80
2023/08/20 13:59:27;;;;;;;6.00;5.40;;;;;;;;;;4400974;32;20039;-82
2023/08/20 14:01:53;;;;;;;9.73;5.28;;;;;;;;;;4407915;32;20496;-82
2023/08/20 14:04:20;;;;;;;11.30;5.18;;;;;;;;;;4407489;32;20073;-82
2023/08/20 14:06:46;;;;;;;5.40;4.90;;;;;;;;;;4407141;32;20096;-83
2023/08/20 14:09:12;;;;;;;7.25;5.53;;;;;;;;;;4413423;32;20035;-85
2023/08/20 14:11:50;;;;;;;5.37;4.85;;;;;;;;;;4409700;32;20065;-84
2023/08/20 14:14:25;;;;;;;5.53;4.97;;;;;;;;;;4395545;32;20035;-89
2023/08/20 14:16:51;;;;;;;5.50;5.05;;;;;;;;;;4414255;32;20140;-82
2023/08/20 14:19:17;;;;;;;5.95;5.22;;;;;;;;;;4413850;32;20045;-84
2023/08/20 14:21:43;;;;;;;5.28;4.87;;;;;;;;;;4412586;32;20046;-81
2023/08/20 14:24:09;;;;;;;6.25;5.65;;;;;;;;;;4409844;32;20050;-84
2023/08/20 14:26:36;;;;;;;5.15;4.75;;;;;;;;;;4415289;32;20026;-78
2023/08/20 14:29:02;;;;;;;5.90;5.35;;;;;;;;;;4425990;32;20404;-79
2023/08/20 14:31:28;;;;;;;8.90;4.70;;;;;;;;;;4429591;32;20476;-87
2023/08/20 14:33:54;;;;;;;5.80;5.20;;;;;;;;;;4425551;32;20061;-81
2023/08/20 14:36:20;;;;;;;4.65;4.30;;;;;;;;;;4415331;32;20286;-79
2023/08/20 14:38:53;;;;;;;4.75;4.40;;;;;;;;;;4429334;32;20589;-78
2023/08/20 14:41:19;;;;;;;8.25;4.93;;;;;;;;;;4424864;32;20058;-82
2023/08/20 14:43:45;;;;;;;5.18;4.68;;;;;;;;;;4422037;32;20422;-81
2023/08/20 14:46:12;;;;;;;5.70;5.25;;;;;;;;;;4405906;32;20122;-80
2023/08/20 14:48:41;;;;;;;6.05;4.60;;;;;;;;;;4416049;32;20072;-82
2023/08/20 14:51:07;;;;;;;7.72;4.97;;;;;;;;;;4412793;32;20038;-81
2023/08/20 14:53:33;;;;;;;5.80;5.30;;;;;;;;;;4413614;32;20087;-83
2023/08/20 14:56:06;;;;;;;5.15;4.68;;;;;;;;;;4414326;32;20051;-79
2023/08/20 14:58:33;;;;;;;5.95;5.18;;;;;;;;;;4407626;32;20035;-81
2023/08/20 15:00:59;;;;;;;5.00;4.70;;;;;;;;;;4409305;32;20047;-80
2023/08/20 15:03:25;;;;;;;5.03;4.62;;;;;;;;;;4405445;32;20372;-80
2023/08/20 15:05:51;;;;;;;5.45;4.85;;;;;;;;;;4404932;32;20090;-82
2023/08/20 15:08:18;;;;;;;5.50;4.93;;;;;;;;;;4409394;32;20046;-80
2023/08/20 15:10:45;;;;;;;9.55;5.05;;;;;;;;;;4415773;32;20046;-79
2023/08/20 15:13:13;;;;;;;5.40;5.00;;;;;;;;;;4409243;32;20089;-78
2023/08/20 15:15:40;;;;;;;5.78;5.28;;;;;;;;;;4406323;32;20042;-80
2023/08/20 15:18:06;;;;;;;5.87;5.35;;;;;;;;;;4400360;32;20399;-80
2023/08/20 15:20:32;;;;;;;5.35;4.55;;;;;;;;;;4385231;32;20063;-81
2023/08/20 15:22:58;;;;;;;5.55;5.05;;;;;;;;;;4373218;32;20186;-83
2023/08/20 15:25:24;;;;;;;6.68;5.07;;;;;;;;;;4377098;32;20373;-84
2023/08/20 15:27:50;;;;;;;4.55;4.25;;;;;;;;;;4375939;32;20057;-85
2023/08/20 15:30:18;;;;;;;6.25;4.50;;;;;;;;;;4383174;32;20948;-88
2023/08/20 15:32:44;;;;;;;5.15;4.75;;;;;;;;;;4384993;32;20066;-80
2023/08/20 15:35:10;;;;;;;5.32;4.90;;;;;;;;;;4368183;32;20040;-82
2023/08/20 15:37:37;;;;;;;10.90;4.93;;;;;;;;;;4368302;32;20396;-83
2023/08/20 15:40:06;;;;;;;7.55;4.80;;;;;;;;;;4365651;32;20051;-82
2023/08/20 15:42:33;;;;;;;8.63;5.15;;;;;;;;;;4373018;32;20081;-80
2023/08/20 15:45:00;;;;;;;5.47;4.82;;;;;;;;;;4337314;33;20070;-82
2023/08/20 15:47:26;;;;;;;6.32;4.70;;;;;;;;;;4344685;32;20068;-80
2023/08/20 15:49:52;;;;;;;7.00;4.72;;;;;;;;;;4337096;33;20466;-81
2023/08/20 15:52:18;;;;;;;5.95;4.68;;;;;;;;;;4356705;32;20042;-82
2023/08/20 15:54:44;;;;;;;8.55;4.47;;;;;;;;;;4311252;33;20976;-81
2023/08/20 15:57:11;;;;;;;10.93;4.72;;;;;;;;;;4309540;33;20025;-81
2023/08/20 15:59:38;;;;;;;9.18;4.95;;;;;;;;;;4308598;33;20041;-81
2023/08/20 16:02:05;;;;;;;5.87;5.18;;;;;;;;;;4306976;33;20041;-80
2023/08/20 16:04:31;;;;;;;5.32;4.82;;;;;;;;;;4329866;33;20477;-84
2023/08/20 16:06:57;;;;;;;5.30;4.90;;;;;;;;;;4355629;32;20039;-80
2023/08/20 16:09:23;;;;;;;8.90;4.87;;;;;;;;;;4326822;33;20859;-78
2023/08/20 16:11:56;;;;;;;4.95;4.47;;;;;;;;;;4319238;33;20121;-79
2023/08/20 16:14:24;;;;;;;5.70;4.82;;;;;;;;;;4336275;33;20048;-78
2023/08/20 16:16:51;;;;;;;4.80;4.50;;;;;;;;;;4344823;32;20408;-79
2023/08/20 16:19:17;;;;;;;7.22;4.72;;;;;;;;;;4346609;32;20052;-80
2023/08/20 16:21:43;;;;;;;5.97;5.30;;;;;;;;;;4337058;33;20089;-79
2023/08/20 16:24:11;;;;;;;4.60;4.28;;;;;;;;;;4337554;33;20066;-80
2023/08/20 16:26:37;;;;;;;5.18;4.68;;;;;;;;;;4346881;32;20027;-80
2023/08/20 16:29:04;;;;;;;11.25;4.97;;;;;;;;;;4351821;32;20055;-81
2023/08/20 16:34:02;;;;;;;5.12;4.72;;;;;;;;;;4351894;32;20047;-80
2023/08/20 16:36:28;;;;;;;5.60;5.10;;;;;;;;;;4349879;32;20059;-80
2023/08/20 16:38:55;;;;;;;5.72;5.22;;;;;;;;;;4349763;32;20051;-79
2023/08/20 16:41:20;;;;;;;5.57;4.97;;;;;;;;;;4351338;32;21065;-79
2023/08/20 16:43:47;;;;;;;5.90;4.45;;;;;;;;;;4352279;32;20073;-80